createdAt,value
2022-12-18T00:02:43.841Z,63.19
2022-12-18T00:05:53.283Z,62.27
2022-12-18T00:09:01.219Z,58.84
2022-12-18T00:15:22.833Z,58.83
2022-12-18T00:18:29.688Z,60.91
2022-12-18T00:21:36.841Z,65.63
2022-12-18T00:24:43.723Z,66.52
2022-12-18T00:27:50.664Z,62.80
2022-12-18T00:31:04.933Z,59.63
2022-12-18T00:34:13.834Z,57.53
2022-12-18T00:37:20.722Z,56.30
2022-12-18T00:40:31.172Z,62.88
2022-12-18T00:43:38.216Z,66.09
2022-12-18T00:46:46.427Z,64.04
2022-12-18T00:49:53.500Z,62.69
2022-12-18T00:53:00.228Z,62.30
2022-12-18T00:56:07.867Z,65.31
2022-12-18T00:59:14.646Z,65.14
2022-12-18T01:02:21.647Z,63.58
2022-12-18T01:05:28.938Z,64.82
2022-12-18T01:08:35.870Z,64.04
2022-12-18T01:11:42.820Z,62.14
2022-12-18T01:14:51.446Z,59.01
2022-12-18T01:17:58.121Z,58.61
2022-12-18T01:21:12.457Z,60.03
2022-12-18T01:24:19.179Z,65.15
2022-12-18T01:27:25.990Z,64.80
2022-12-18T01:30:32.811Z,63.49
2022-12-18T01:33:40.035Z,60.70
2022-12-18T01:36:47.003Z,62.02
2022-12-18T01:39:55.472Z,62.13
2022-12-18T01:43:02.492Z,62.90
2022-12-18T01:46:12.267Z,61.19
2022-12-18T01:49:18.962Z,60.39
2022-12-18T01:52:28.264Z,57.65
2022-12-18T01:55:41.062Z,59.55
2022-12-18T01:58:54.736Z,64.99
2022-12-18T02:02:03.791Z,63.53
2022-12-18T02:05:13.246Z,59.92
2022-12-18T02:08:28.217Z,56.75
2022-12-18T02:11:50.381Z,57.99
2022-12-18T02:15:02.380Z,58.57
2022-12-18T02:18:13.188Z,60.52
2022-12-18T02:21:31.214Z,66.56
2022-12-18T02:24:47.443Z,68.79
2022-12-18T02:27:58.406Z,65.26
2022-12-18T02:31:10.187Z,60.33
2022-12-18T02:34:18.480Z,56.97
2022-12-18T02:37:30.116Z,55.91
2022-12-18T02:40:40.303Z,56.72
2022-12-18T02:43:51.548Z,62.43
2022-12-18T02:46:58.772Z,67.59
2022-12-18T02:50:16.472Z,65.49
2022-12-18T02:53:29.607Z,62.11
2022-12-18T02:56:41.355Z,59.23
2022-12-18T02:59:58.184Z,55.45
2022-12-18T03:03:10.145Z,56.17
2022-12-18T03:06:25.766Z,60.50
2022-12-18T03:09:35.048Z,65.98
2022-12-18T03:12:45.774Z,67.10
2022-12-18T03:15:57.448Z,64.05
2022-12-18T03:19:06.451Z,61.71
2022-12-18T03:22:14.725Z,61.80
2022-12-18T03:25:27.778Z,62.93
2022-12-18T03:28:39.754Z,63.03
2022-12-18T03:31:53.434Z,61.50
2022-12-18T03:35:05.308Z,60.18
2022-12-18T03:38:14.691Z,58.38
2022-12-18T03:41:35.021Z,57.51
2022-12-18T03:45:05.156Z,57.25
2022-12-18T03:48:19.434Z,60.96
2022-12-18T03:51:34.183Z,67.36
2022-12-18T03:54:43.904Z,66.88
2022-12-18T03:57:56.058Z,63.50
2022-12-18T04:01:07.804Z,60.22
2022-12-18T04:04:17.261Z,54.62
2022-12-18T04:07:25.432Z,55.67
2022-12-18T04:10:33.025Z,58.09
2022-12-18T04:13:41.473Z,59.74
2022-12-18T04:16:53.338Z,62.30
2022-12-18T04:20:04.270Z,68.15
2022-12-18T04:23:11.367Z,67.33
2022-12-18T04:26:19.017Z,63.61
2022-12-18T04:29:33.454Z,58.28
2022-12-18T04:32:40.124Z,56.38
2022-12-18T04:35:48.821Z,59.38
2022-12-18T04:38:55.638Z,63.70
2022-12-18T04:42:03.722Z,66.62
2022-12-18T04:45:12.202Z,64.28
2022-12-18T04:48:18.934Z,60.78
2022-12-18T04:51:26.829Z,57.98
2022-12-18T04:54:33.708Z,55.47
2022-12-18T04:57:40.510Z,57.58
2022-12-18T05:00:47.208Z,57.94
2022-12-18T05:03:54.924Z,60.78
2022-12-18T05:07:01.880Z,68.00
2022-12-18T05:10:10.160Z,68.23
2022-12-18T05:13:17.239Z,64.33
2022-12-18T05:16:24.271Z,61.28
2022-12-18T05:19:31.063Z,58.92
2022-12-18T05:22:37.790Z,57.85
2022-12-18T05:25:44.554Z,55.51
2022-12-18T05:28:51.690Z,54.10
2022-12-18T05:31:58.391Z,53.65
2022-12-18T05:35:06.333Z,52.82
2022-12-18T05:38:13.026Z,52.76
2022-12-18T05:41:20.031Z,52.62
2022-12-18T05:44:26.876Z,52.55
2022-12-18T05:47:33.697Z,53.20
2022-12-18T05:50:41.538Z,53.27
2022-12-18T05:53:49.270Z,53.03
2022-12-18T05:56:56.212Z,53.34
2022-12-18T06:00:02.933Z,53.02
2022-12-18T06:03:18.944Z,51.91
2022-12-18T06:06:27.857Z,51.55
2022-12-18T06:09:34.491Z,51.49
2022-12-18T06:12:41.282Z,51.77
2022-12-18T06:15:49.554Z,51.90
2022-12-18T06:18:57.787Z,52.01
2022-12-18T06:22:04.550Z,52.08
2022-12-18T06:25:12.653Z,51.50
2022-12-18T06:28:19.823Z,51.31
2022-12-18T06:31:27.921Z,51.09
2022-12-18T06:34:35.838Z,50.62
2022-12-18T06:37:42.894Z,50.63
2022-12-18T06:40:49.596Z,50.83
2022-12-18T06:43:59.732Z,50.83
2022-12-18T06:47:07.165Z,50.82
2022-12-18T06:50:14.760Z,50.92
2022-12-18T06:53:21.604Z,51.17
2022-12-18T06:56:29.189Z,51.40
2022-12-18T06:59:35.929Z,51.27
2022-12-18T07:02:43.019Z,51.38
2022-12-18T07:05:49.992Z,51.26
2022-12-18T07:08:57.864Z,50.63
2022-12-18T07:12:05.978Z,50.72
2022-12-18T07:15:13.493Z,50.30
2022-12-18T07:18:20.252Z,50.11
2022-12-18T07:21:27.813Z,49.70
2022-12-18T07:24:36.078Z,49.90
2022-12-18T07:27:43.137Z,50.09
2022-12-18T07:30:49.897Z,50.64
2022-12-18T07:33:56.723Z,50.32
2022-12-18T07:37:03.453Z,50.16
2022-12-18T07:40:12.963Z,50.31
2022-12-18T07:43:18.135Z,50.08
2022-12-18T07:46:25.283Z,49.94
2022-12-18T07:49:32.453Z,49.86
2022-12-18T07:52:39.187Z,50.63
2022-12-18T07:56:11.154Z,50.51
2022-12-18T07:59:12.920Z,51.15
2022-12-18T08:02:19.682Z,51.11
2022-12-18T08:05:26.872Z,51.37
2022-12-18T08:08:34.511Z,50.98
2022-12-18T08:11:41.320Z,50.75
2022-12-18T08:14:48.155Z,50.86
2022-12-18T08:17:58.207Z,50.66
2022-12-18T08:21:12.986Z,50.77
2022-12-18T08:24:19.778Z,50.23
2022-12-18T08:27:30.302Z,50.26
2022-12-18T08:30:37.405Z,49.39
2022-12-18T08:33:44.486Z,49.25
2022-12-18T08:36:51.626Z,49.20
2022-12-18T08:39:58.434Z,49.59
2022-12-18T08:43:23.100Z,49.26
2022-12-18T08:46:35.208Z,49.46
2022-12-18T08:49:42.102Z,49.50
2022-12-18T08:52:49.005Z,49.78
2022-12-18T08:55:55.746Z,49.40
2022-12-18T08:59:02.472Z,49.64
2022-12-18T09:02:10.350Z,49.33
2022-12-18T09:05:17.495Z,50.17
2022-12-18T09:08:24.275Z,50.25
2022-12-18T09:11:33.018Z,49.52
2022-12-18T09:14:39.618Z,49.35
2022-12-18T09:17:46.387Z,49.41
2022-12-18T09:20:54.257Z,49.62
2022-12-18T09:24:01.184Z,48.91
2022-12-18T09:27:08.094Z,48.71
2022-12-18T09:30:15.828Z,48.43
2022-12-18T09:33:22.544Z,48.09
2022-12-18T09:36:29.690Z,47.66
2022-12-18T09:39:36.613Z,47.22
2022-12-18T09:42:46.872Z,46.60
2022-12-18T09:46:00.769Z,44.75
2022-12-18T09:49:24.114Z,45.67
2022-12-18T09:52:35.910Z,54.37
2022-12-18T09:55:47.041Z,60.97
2022-12-18T09:59:00.338Z,63.59
2022-12-18T10:02:18.938Z,60.82
2022-12-18T10:05:39.899Z,56.07
2022-12-18T10:08:54.514Z,52.76
2022-12-18T10:12:09.667Z,58.40
2022-12-18T10:15:23.042Z,66.04
2022-12-18T10:18:48.020Z,65.53
2022-12-18T10:22:01.592Z,61.30
2022-12-18T10:25:20.384Z,57.28
2022-12-18T10:28:31.450Z,56.02
2022-12-18T10:31:38.202Z,64.85
2022-12-18T10:34:46.648Z,64.56
2022-12-18T10:38:08.887Z,61.05
2022-12-18T10:41:29.342Z,56.15
2022-12-18T10:44:36.386Z,53.48
2022-12-18T10:47:49.384Z,61.40
2022-12-18T10:51:13.517Z,64.96
2022-12-18T10:54:23.937Z,60.92
2022-12-18T10:57:37.980Z,55.13
2022-12-18T11:00:44.784Z,56.18
2022-12-18T11:04:03.476Z,61.74
2022-12-18T11:07:11.991Z,64.40
2022-12-18T11:10:20.842Z,62.89
2022-12-18T11:13:30.585Z,60.49
2022-12-18T11:17:03.060Z,57.43
2022-12-18T11:20:33.747Z,60.07
2022-12-18T11:23:47.357Z,62.98
2022-12-18T11:26:59.459Z,66.18
2022-12-18T11:30:23.195Z,64.47
2022-12-18T11:33:30.221Z,62.85
2022-12-18T11:36:48.092Z,61.02
2022-12-18T11:40:01.134Z,58.01
2022-12-18T11:43:12.937Z,58.93
2022-12-18T11:46:28.192Z,60.82
2022-12-18T11:49:37.788Z,63.39
2022-12-18T11:52:44.815Z,65.21
2022-12-18T11:56:03.616Z,63.66
2022-12-18T11:59:23.054Z,59.56
2022-12-18T12:02:45.051Z,54.47
2022-12-18T12:06:05.075Z,55.50
2022-12-18T12:09:19.838Z,64.95
2022-12-18T12:12:48.991Z,64.09
2022-12-18T12:15:59.198Z,60.62
2022-12-18T12:19:22.315Z,57.04
2022-12-18T12:22:39.983Z,57.13
2022-12-18T12:25:51.978Z,63.03
2022-12-18T12:29:15.458Z,65.29
2022-12-18T12:32:40.370Z,62.89
2022-12-18T12:36:01.673Z,60.81
2022-12-18T12:39:13.747Z,54.37
2022-12-18T12:42:46.280Z,52.43
2022-12-18T12:45:56.860Z,54.16
2022-12-18T12:49:10.763Z,57.41
2022-12-18T12:52:20.110Z,59.09
2022-12-18T12:55:29.925Z,66.00
2022-12-18T12:58:45.521Z,67.26
2022-12-18T13:02:01.952Z,64.56
2022-12-18T13:05:19.313Z,61.89
2022-12-18T13:08:31.104Z,60.51
2022-12-18T13:12:01.088Z,58.43
2022-12-18T13:15:25.607Z,58.94
2022-12-18T13:18:33.326Z,61.76
2022-12-18T13:21:40.648Z,64.68
2022-12-18T13:24:48.638Z,62.43
2022-12-18T13:28:13.808Z,60.89
2022-12-18T13:32:01.455Z,56.37
2022-12-18T13:35:44.285Z,53.65
2022-12-18T13:39:10.936Z,56.83
2022-12-18T13:42:59.730Z,62.64
2022-12-18T13:46:24.765Z,64.41
2022-12-18T13:49:39.583Z,62.87
2022-12-18T13:52:47.327Z,60.27
2022-12-18T13:55:54.222Z,57.67
2022-12-18T13:59:24.783Z,57.24
2022-12-18T14:02:34.267Z,63.50
2022-12-18T14:05:43.132Z,64.88
2022-12-18T14:08:52.106Z,62.71
2022-12-18T14:12:13.724Z,59.83
2022-12-18T14:15:29.416Z,56.47
2022-12-18T14:18:45.595Z,57.68
2022-12-18T14:21:53.356Z,59.26
2022-12-18T14:25:22.098Z,62.44
2022-12-18T14:28:28.998Z,66.44
2022-12-18T14:31:35.894Z,66.84
2022-12-18T14:34:42.793Z,63.58
2022-12-18T14:37:49.494Z,60.58
2022-12-18T14:41:04.536Z,54.92
2022-12-18T14:44:14.704Z,53.73
2022-12-18T14:47:21.958Z,57.13
2022-12-18T14:50:29.437Z,58.48
2022-12-18T14:53:46.373Z,64.07
2022-12-18T14:57:02.621Z,65.38
2022-12-18T15:00:17.538Z,62.45
2022-12-18T15:03:25.215Z,60.99
2022-12-18T15:06:36.786Z,59.66
2022-12-18T15:09:46.845Z,56.81
2022-12-18T15:13:08.586Z,56.57
2022-12-18T15:16:16.459Z,63.94
2022-12-18T15:19:24.736Z,65.16
2022-12-18T15:22:36.142Z,63.30
2022-12-18T15:25:42.905Z,61.06
2022-12-18T15:28:52.017Z,59.48
2022-12-18T15:32:17.869Z,55.84
2022-12-18T15:35:26.767Z,55.38
2022-12-18T15:38:34.306Z,55.87
2022-12-18T15:41:41.001Z,57.78
2022-12-18T15:44:49.548Z,58.85
2022-12-18T15:47:56.814Z,61.37
2022-12-18T15:51:03.963Z,67.06
2022-12-18T15:54:17.161Z,67.82
2022-12-18T15:57:27.671Z,63.78
2022-12-18T16:00:36.263Z,61.01
2022-12-18T16:03:43.504Z,58.62
2022-12-18T16:07:13.915Z,57.36
2022-12-18T16:10:18.137Z,62.27
2022-12-18T16:13:24.939Z,65.36
2022-12-18T16:16:32.862Z,63.38
2022-12-18T16:19:39.761Z,62.17
2022-12-18T16:22:47.925Z,60.01
2022-12-18T16:25:54.655Z,56.65
2022-12-18T16:29:01.724Z,57.59
2022-12-18T16:32:08.808Z,60.81
2022-12-18T16:35:17.396Z,63.54
2022-12-18T16:38:24.054Z,65.63
2022-12-18T16:41:33.711Z,64.51
2022-12-18T16:44:40.513Z,63.61
2022-12-18T16:47:47.660Z,61.89
2022-12-18T16:51:03.953Z,59.68
2022-12-18T16:54:15.964Z,56.51
2022-12-18T16:57:26.078Z,60.42
2022-12-18T17:00:33.021Z,64.08
2022-12-18T17:03:40.317Z,63.61
2022-12-18T17:06:51.896Z,62.50
2022-12-18T17:09:58.804Z,61.39
2022-12-18T17:13:05.573Z,59.76
2022-12-18T17:16:13.070Z,58.86
2022-12-18T17:19:19.989Z,63.22
2022-12-18T17:22:26.708Z,65.07
2022-12-18T17:25:33.547Z,63.68
2022-12-18T17:28:42.256Z,61.40
2022-12-18T17:31:49.503Z,59.04
2022-12-18T17:34:56.547Z,58.04
2022-12-18T17:38:03.653Z,62.94
2022-12-18T17:41:12.528Z,64.10
2022-12-18T17:44:19.666Z,62.45
2022-12-18T17:47:26.379Z,60.15
2022-12-18T17:50:33.430Z,58.16
2022-12-18T17:53:41.102Z,62.41
2022-12-18T17:56:48.801Z,64.48
2022-12-18T17:59:56.159Z,62.89
2022-12-18T18:03:03.173Z,61.39
2022-12-18T18:06:11.113Z,60.24
2022-12-18T18:09:17.871Z,58.80
2022-12-18T18:12:42.382Z,57.31
2022-12-18T18:15:58.451Z,63.60
2022-12-18T18:19:06.975Z,64.63
2022-12-18T18:22:13.928Z,61.94
2022-12-18T18:25:21.085Z,60.09
2022-12-18T18:28:29.407Z,57.74
2022-12-18T18:31:41.331Z,58.85
2022-12-18T18:34:51.277Z,64.59
2022-12-18T18:37:58.907Z,65.01
2022-12-18T18:41:06.536Z,62.91
2022-12-18T18:44:13.820Z,60.85
2022-12-18T18:47:21.100Z,56.97
2022-12-18T18:50:28.025Z,56.75
2022-12-18T18:53:39.650Z,60.03
2022-12-18T18:57:18.839Z,65.50
2022-12-18T19:00:16.281Z,64.44
2022-12-18T19:03:25.057Z,62.17
2022-12-18T19:06:32.379Z,60.78
2022-12-18T19:09:40.512Z,58.06
2022-12-18T19:13:05.113Z,60.40
2022-12-18T19:16:13.072Z,62.89
2022-12-18T19:19:21.140Z,64.56
2022-12-18T19:22:28.402Z,62.87
2022-12-18T19:25:40.275Z,62.03
2022-12-18T19:28:49.133Z,58.18
2022-12-18T19:31:56.095Z,59.84
2022-12-18T19:35:02.908Z,63.28
2022-12-18T19:38:10.213Z,63.34
2022-12-18T19:41:18.059Z,61.35
2022-12-18T19:44:25.343Z,59.66
2022-12-18T19:47:32.195Z,57.39
2022-12-18T19:50:42.904Z,57.39
2022-12-18T19:53:54.925Z,61.50
2022-12-18T19:57:07.296Z,65.63
2022-12-18T20:00:18.867Z,65.17
2022-12-18T20:03:32.077Z,61.67
2022-12-18T20:06:49.773Z,58.26
2022-12-18T20:10:02.699Z,59.32
2022-12-18T20:13:15.359Z,64.00
2022-12-18T20:16:22.249Z,64.06
2022-12-18T20:19:29.347Z,62.02
2022-12-18T20:22:36.223Z,60.39
2022-12-18T20:25:43.088Z,57.05
2022-12-18T20:28:49.762Z,57.21
2022-12-18T20:31:57.010Z,60.13
2022-12-18T20:35:04.260Z,65.29
2022-12-18T20:38:12.185Z,65.25
2022-12-18T20:41:21.144Z,64.12
2022-12-18T20:44:28.243Z,62.13
2022-12-18T20:47:35.094Z,59.11
2022-12-18T20:50:43.440Z,55.21
2022-12-18T20:53:50.342Z,55.84
2022-12-18T20:56:57.718Z,55.88
2022-12-18T21:00:04.970Z,60.84
2022-12-18T21:03:13.186Z,66.14
2022-12-18T21:06:22.793Z,65.65
2022-12-18T21:09:37.721Z,64.40
2022-12-18T21:12:50.905Z,63.04
2022-12-18T21:16:07.662Z,61.92
2022-12-18T21:19:19.340Z,58.84
2022-12-18T21:22:26.280Z,57.59
2022-12-18T21:25:33.171Z,60.48
2022-12-18T21:28:40.133Z,65.29
2022-12-18T21:31:47.737Z,66.14
2022-12-18T21:34:54.849Z,62.73
2022-12-18T21:38:01.750Z,61.17
2022-12-18T21:41:10.205Z,60.87
2022-12-18T21:44:18.953Z,60.28
2022-12-18T21:47:26.280Z,58.85
2022-12-18T21:50:34.572Z,60.32
2022-12-18T21:53:41.221Z,64.24
2022-12-18T21:56:51.324Z,64.57
2022-12-18T21:59:58.130Z,62.33
2022-12-18T22:03:18.536Z,60.03
2022-12-18T22:06:26.088Z,58.31
2022-12-18T22:09:33.334Z,61.02
2022-12-18T22:12:43.751Z,64.59
2022-12-18T22:15:51.314Z,63.84
2022-12-18T22:18:58.467Z,61.76
2022-12-18T22:22:05.225Z,60.28
2022-12-18T22:25:12.711Z,57.73
2022-12-18T22:28:37.150Z,60.77
2022-12-18T22:31:43.984Z,64.47
2022-12-18T22:34:50.884Z,63.06
2022-12-18T22:37:59.121Z,60.60
2022-12-18T22:41:05.942Z,60.11
2022-12-18T22:44:15.033Z,57.43
2022-12-18T22:47:29.363Z,58.81
2022-12-18T22:50:36.745Z,63.68
2022-12-18T22:53:43.463Z,63.56
2022-12-18T22:56:52.081Z,61.81
2022-12-18T22:59:58.913Z,58.94
2022-12-18T23:03:07.139Z,59.26
2022-12-18T23:06:14.382Z,64.24
2022-12-18T23:09:22.079Z,64.77
2022-12-18T23:12:28.999Z,61.86
2022-12-18T23:15:36.135Z,60.03
2022-12-18T23:18:44.070Z,57.72
2022-12-18T23:21:50.875Z,60.59
2022-12-18T23:24:57.632Z,64.59
2022-12-18T23:28:05.138Z,63.32
2022-12-18T23:31:16.726Z,61.31
2022-12-18T23:34:23.865Z,59.58
2022-12-18T23:37:57.492Z,58.16
2022-12-18T23:40:57.347Z,63.18
2022-12-18T23:44:03.946Z,65.04
2022-12-18T23:47:10.655Z,62.04
2022-12-18T23:50:17.306Z,59.36
2022-12-18T23:53:23.985Z,58.40
2022-12-18T23:56:32.012Z,62.99
2022-12-18T23:59:38.862Z,65.15
